Time;durP1;ratioP1;P1;durP2;ratioP2;P2;SDS_P1;SDS_P2;PMS_P1;PMS_P2;Temp;Humidity;BMP_temperature;BMP_pressure;BME280_temperature;BME280_humidity;BME280_pressure;Samples;Min_cycle;Max_cycle;Signal;HPM_P1;HPM_P2
2022/06/17 00:00:55;;;;;;;4.55;2.47;;;15.00;99.90;;;;;;4998798;28;20022;-59
2022/06/17 00:03:23;;;;;;;7.40;2.22;;;15.00;99.90;;;;;;4997932;28;20483;-59
2022/06/17 00:05:50;;;;;;;7.25;3.33;;;15.00;99.90;;;;;;4976149;28;20588;-59
2022/06/17 00:08:33;;;;;;;7.30;2.65;;;15.00;99.90;;;;;;5001700;28;20829;-59
2022/06/17 00:10:59;;;;;;;5.65;2.28;;;15.00;99.90;;;;;;4998180;28;20036;-59
2022/06/17 00:13:25;;;;;;;9.00;2.75;;;14.90;99.90;;;;;;4995604;28;20034;-59
2022/06/17 00:15:52;;;;;;;11.02;2.78;;;14.80;99.90;;;;;;4995589;28;20026;-59
2022/06/17 00:18:19;;;;;;;4.53;2.40;;;14.80;99.90;;;;;;4995241;28;20031;-59
2022/06/17 00:20:46;;;;;;;8.05;2.90;;;14.80;99.90;;;;;;4994631;28;20455;-59
2022/06/17 00:23:13;;;;;;;3.90;2.80;;;14.80;99.90;;;;;;4995236;28;20026;-58
2022/06/17 00:25:41;;;;;;;7.18;3.10;;;14.80;99.90;;;;;;5002230;28;20387;-59
2022/06/17 00:28:15;;;;;;;5.05;3.75;;;14.70;99.90;;;;;;4976135;28;20030;-60
2022/06/17 00:30:41;;;;;;;5.35;2.55;;;14.70;99.90;;;;;;4998424;28;20026;-59
2022/06/17 00:33:08;;;;;;;9.85;2.88;;;14.60;99.90;;;;;;5003568;28;20041;-59
2022/06/17 00:35:41;;;;;;;4.78;2.80;;;14.60;99.90;;;;;;4994112;28;20101;-59
2022/06/17 00:38:13;;;;;;;4.40;2.50;;;14.50;99.90;;;;;;4997462;28;20030;-58
2022/06/17 00:40:39;;;;;;;5.93;2.78;;;14.50;99.90;;;;;;5003060;28;20538;-58
2022/06/17 00:43:12;;;;;;;4.85;2.38;;;14.50;99.90;;;;;;4998467;28;20026;-60
2022/06/17 00:45:44;;;;;;;9.50;3.50;;;14.60;99.90;;;;;;4996690;28;20041;-58
2022/06/17 00:48:12;;;;;;;6.78;2.70;;;14.50;99.90;;;;;;4997554;28;20751;-59
2022/06/17 00:50:46;;;;;;;6.55;3.28;;;14.50;99.90;;;;;;5009372;28;20030;-59
2022/06/17 00:53:22;;;;;;;3.90;2.45;;;14.50;99.90;;;;;;5008046;28;20041;-58
2022/06/17 00:55:52;;;;;;;7.88;2.60;;;14.50;99.90;;;;;;5009054;28;20518;-58
2022/06/17 00:58:25;;;;;;;3.10;2.70;;;14.40;99.90;;;;;;5005947;28;20041;-59
2022/06/17 01:00:57;;;;;;;5.20;2.83;;;14.40;99.90;;;;;;5007949;28;20026;-59
2022/06/17 01:03:34;;;;;;;6.00;2.25;;;14.40;99.90;;;;;;5006454;28;20040;-58
2022/06/17 01:06:13;;;;;;;5.07;2.70;;;14.40;99.90;;;;;;4984457;28;20066;-55
2022/06/17 01:11:59;;;;;;;5.93;2.63;;;14.20;99.90;;;;;;5007730;28;20029;-58
2022/06/17 01:14:26;;;;;;;6.40;3.10;;;14.20;99.90;;;;;;5025769;28;20380;-58
2022/06/17 01:16:53;;;;;;;7.07;2.95;;;14.20;99.90;;;;;;5011900;28;20025;-59
2022/06/17 01:19:41;;;;;;;4.93;2.58;;;14.10;99.90;;;;;;5007747;28;20030;-58
2022/06/17 01:22:25;;;;;;;7.95;3.05;;;14.10;99.90;;;;;;5012926;28;20021;-59
2022/06/17 01:24:52;;;;;;;4.60;2.95;;;14.10;99.90;;;;;;5003945;28;20052;-59
2022/06/17 01:27:22;;;;;;;5.30;2.83;;;14.10;99.90;;;;;;5012082;28;20090;-59
2022/06/17 01:29:48;;;;;;;3.47;2.70;;;14.00;99.90;;;;;;5012650;28;20034;-58
2022/06/17 01:32:16;;;;;;;8.18;3.42;;;14.00;99.90;;;;;;5012235;28;20018;-59
2022/06/17 01:34:42;;;;;;;8.80;3.15;;;14.00;99.90;;;;;;5001689;28;20026;-59
2022/06/17 01:37:09;;;;;;;5.63;2.97;;;13.90;99.90;;;;;;5008609;28;20029;-58
2022/06/17 01:39:35;;;;;;;7.60;3.38;;;13.90;99.90;;;;;;5010655;28;20054;-59
2022/06/17 01:42:01;;;;;;;5.07;2.70;;;13.90;99.90;;;;;;5011157;28;20026;-57
2022/06/17 01:44:35;;;;;;;5.63;3.20;;;13.80;99.90;;;;;;5010421;28;21978;-59
2022/06/17 01:47:05;;;;;;;5.90;3.33;;;13.70;99.90;;;;;;5002673;28;20041;-58
2022/06/17 01:49:45;;;;;;;6.47;3.22;;;13.70;99.90;;;;;;5007202;28;20034;-59
2022/06/17 01:52:16;;;;;;;4.43;3.15;;;13.50;99.90;;;;;;5008292;28;20832;-59
2022/06/17 01:54:58;;;;;;;11.13;2.90;;;13.50;99.90;;;;;;5009362;28;20045;-58
2022/06/17 01:57:32;;;;;;;9.10;2.65;;;13.40;99.90;;;;;;5009996;28;20034;-59
2022/06/17 02:00:06;;;;;;;7.30;3.58;;;13.40;99.90;;;;;;5008713;28;20352;-60
2022/06/17 02:02:32;;;;;;;4.85;2.67;;;13.40;99.90;;;;;;5011155;28;20440;-59
2022/06/17 02:05:05;;;;;;;7.28;3.05;;;13.30;99.90;;;;;;4991856;28;20507;-59
2022/06/17 02:07:52;;;;;;;9.45;3.00;;;13.40;99.90;;;;;;5010907;28;20060;-59
2022/06/17 02:10:18;;;;;;;8.93;3.10;;;13.30;99.90;;;;;;5007406;28;20104;-58
2022/06/17 02:12:44;;;;;;;5.88;3.05;;;13.30;99.90;;;;;;5012258;28;20028;-58
2022/06/17 02:15:12;;;;;;;5.80;3.33;;;13.30;99.90;;;;;;5011075;28;20034;-58
2022/06/17 02:17:42;;;;;;;6.25;3.22;;;13.40;99.90;;;;;;5003807;28;20018;-58
2022/06/17 02:20:10;;;;;;;7.25;3.15;;;13.30;99.90;;;;;;5010520;28;20503;-59
2022/06/17 02:22:36;;;;;;;7.80;3.30;;;13.30;99.90;;;;;;5003010;28;20034;-58
2022/06/17 02:25:07;;;;;;;6.40;3.15;;;13.30;99.90;;;;;;5007300;28;20101;-58
2022/06/17 02:27:34;;;;;;;4.07;3.05;;;13.30;99.90;;;;;;5009422;28;20029;-58
2022/06/17 02:30:03;;;;;;;6.63;2.90;;;13.30;99.90;;;;;;5009282;28;20424;-58
2022/06/17 02:32:30;;;;;;;5.28;3.50;;;13.20;99.90;;;;;;5004742;28;20698;-58
2022/06/17 02:35:00;;;;;;;8.30;3.47;;;13.20;99.90;;;;;;5009224;28;20025;-59
2022/06/17 02:37:27;;;;;;;5.20;3.40;;;13.10;99.90;;;;;;5005641;28;20041;-55
2022/06/17 02:39:56;;;;;;;4.93;3.00;;;13.10;99.90;;;;;;5003036;28;20159;-59
2022/06/17 02:42:28;;;;;;;11.13;3.47;;;13.10;99.90;;;;;;5011435;28;20066;-59
2022/06/17 02:45:02;;;;;;;7.80;3.58;;;13.00;99.90;;;;;;5009004;28;20028;-59
2022/06/17 02:47:28;;;;;;;7.65;3.50;;;13.00;99.90;;;;;;5008375;28;20029;-58
2022/06/17 02:49:55;;;;;;;4.28;2.97;;;13.00;99.90;;;;;;5003837;28;20030;-59
2022/06/17 02:52:34;;;;;;;6.88;3.58;;;13.00;99.90;;;;;;5001431;28;20054;-59
2022/06/17 02:55:04;;;;;;;9.65;3.03;;;13.00;99.90;;;;;;5002989;28;20044;-58
2022/06/17 02:57:30;;;;;;;5.97;2.78;;;13.00;99.90;;;;;;5009040;28;20561;-58
2022/06/17 03:00:00;;;;;;;5.60;3.78;;;13.00;99.90;;;;;;5007126;28;20042;-57
2022/06/17 03:02:38;;;;;;;9.02;3.30;;;13.00;99.90;;;;;;5006086;28;20487;-60
2022/06/17 03:05:20;;;;;;;6.70;3.88;;;13.00;99.90;;;;;;4989965;28;20042;-59
2022/06/17 03:07:46;;;;;;;9.80;3.33;;;12.90;99.90;;;;;;5003849;28;20034;-60
2022/06/17 03:10:23;;;;;;;4.38;2.45;;;13.00;99.90;;;;;;5010358;28;20030;-59
2022/06/17 03:12:56;;;;;;;5.55;3.05;;;13.00;99.90;;;;;;5011467;28;20033;-59
2022/06/17 03:15:23;;;;;;;6.72;2.97;;;13.00;99.90;;;;;;5009384;28;20041;-60
2022/06/17 03:17:48;;;;;;;5.55;2.90;;;13.00;99.90;;;;;;5009768;28;20163;-60
2022/06/17 03:20:25;;;;;;;6.00;3.05;;;12.90;99.90;;;;;;5007956;28;20400;-59
2022/06/17 03:22:57;;;;;;;6.55;3.22;;;12.90;99.90;;;;;;5001147;28;20471;-60
2022/06/17 03:25:25;;;;;;;5.40;2.80;;;12.90;99.90;;;;;;5008375;28;20018;-59
2022/06/17 03:27:57;;;;;;;5.60;2.90;;;12.90;99.90;;;;;;5009988;28;20477;-55
2022/06/17 03:30:30;;;;;;;8.07;3.33;;;12.90;99.90;;;;;;5006684;28;20033;-59
2022/06/17 03:33:12;;;;;;;7.72;3.33;;;12.90;99.90;;;;;;5007703;28;20416;-58
2022/06/17 03:35:40;;;;;;;8.52;4.57;;;12.90;99.90;;;;;;5005817;28;20400;-59
2022/06/17 03:38:28;;;;;;;12.68;5.18;;;12.90;99.90;;;;;;5009053;28;20022;-59
2022/06/17 03:41:00;;;;;;;9.57;3.22;;;12.90;99.90;;;;;;5005598;28;20502;-58
2022/06/17 03:43:38;;;;;;;7.70;3.30;;;13.00;99.90;;;;;;5009536;28;20025;-59
2022/06/17 03:46:06;;;;;;;9.27;4.15;;;13.10;99.90;;;;;;5008833;28;20028;-59
2022/06/17 03:48:52;;;;;;;8.60;2.95;;;13.10;99.90;;;;;;5008836;28;20049;-56
2022/06/17 03:51:21;;;;;;;6.50;3.03;;;13.20;99.90;;;;;;5008796;28;20025;-60
2022/06/17 03:53:48;;;;;;;5.50;2.88;;;13.20;99.90;;;;;;5002173;28;20037;-60
2022/06/17 03:56:21;;;;;;;7.55;3.38;;;13.20;99.90;;;;;;5008501;28;20018;-59
2022/06/17 03:58:48;;;;;;;5.80;3.38;;;13.30;99.90;;;;;;5007089;28;20036;-58
2022/06/17 04:01:21;;;;;;;8.73;3.47;;;13.30;99.90;;;;;;5006485;28;20026;-59
2022/06/17 04:03:56;;;;;;;7.53;3.90;;;13.30;99.90;;;;;;5003417;28;20026;-60
2022/06/17 04:06:27;;;;;;;5.97;3.45;;;13.30;99.90;;;;;;4989533;28;20042;-58
2022/06/17 04:08:52;;;;;;;6.93;3.58;;;13.30;99.90;;;;;;4998036;28;20030;-60
2022/06/17 04:11:20;;;;;;;5.72;3.10;;;13.30;99.90;;;;;;5015096;28;20079;-59
2022/06/17 04:13:46;;;;;;;8.52;3.42;;;13.30;99.90;;;;;;5009559;28;20033;-58
2022/06/17 04:16:39;;;;;;;8.32;3.42;;;13.30;99.90;;;;;;5005223;28;20038;-59
2022/06/17 04:19:20;;;;;;;6.63;3.50;;;13.40;99.90;;;;;;5003183;28;20161;-59
2022/06/17 04:21:45;;;;;;;5.00;3.03;;;13.50;99.90;;;;;;5003395;28;20046;-59
2022/06/17 04:24:17;;;;;;;6.80;3.67;;;13.60;99.90;;;;;;5003912;28;20076;-59
2022/06/17 04:26:45;;;;;;;7.97;3.58;;;13.60;99.90;;;;;;5007173;28;20030;-60
2022/06/17 04:29:18;;;;;;;3.65;3.00;;;13.70;99.90;;;;;;5006917;28;20101;-59
2022/06/17 04:31:48;;;;;;;5.07;3.45;;;13.70;99.90;;;;;;5008427;28;20152;-58
2022/06/17 04:34:16;;;;;;;6.13;3.10;;;13.80;99.90;;;;;;5008502;28;20083;-59
2022/06/17 04:36:49;;;;;;;5.45;3.45;;;14.70;99.90;;;;;;5008955;28;20510;-58
2022/06/17 04:39:21;;;;;;;5.38;3.05;;;16.00;99.90;;;;;;5001569;28;20483;-59
2022/06/17 04:41:53;;;;;;;5.22;2.78;;;17.40;99.90;;;;;;5004408;28;20232;-60
2022/06/17 04:44:19;;;;;;;4.57;2.90;;;18.50;98.80;;;;;;5007634;28;20026;-60
2022/06/17 04:47:00;;;;;;;4.55;2.85;;;19.40;96.50;;;;;;5009427;28;20034;-59
2022/06/17 04:49:29;;;;;;;5.70;2.70;;;20.20;95.00;;;;;;5008393;28;20030;-58
2022/06/17 04:51:59;;;;;;;5.20;2.15;;;21.00;92.60;;;;;;5008929;28;20029;-59
2022/06/17 04:54:26;;;;;;;7.38;2.40;;;21.70;90.60;;;;;;5011108;28;20030;-59
2022/06/17 04:56:54;;;;;;;4.53;2.10;;;22.30;88.60;;;;;;5011512;28;20037;-59
2022/06/17 04:59:22;;;;;;;4.93;2.05;;;22.80;86.50;;;;;;5010531;28;20113;-59
2022/06/17 05:01:49;;;;;;;3.97;1.70;;;23.50;82.30;;;;;;5012053;28;20048;-59
2022/06/17 05:04:16;;;;;;;5.43;1.80;;;24.80;79.00;;;;;;5011536;28;20491;-59
2022/06/17 05:06:42;;;;;;;2.72;1.70;;;26.00;75.90;;;;;;4992744;28;20052;-59
2022/06/17 05:09:20;;;;;;;3.33;1.80;;;26.10;74.70;;;;;;5011939;28;20025;-54
2022/06/17 05:11:49;;;;;;;3.70;2.03;;;26.10;73.10;;;;;;5012749;28;20041;-59
2022/06/17 05:14:37;;;;;;;3.92;1.60;;;26.20;72.60;;;;;;5012929;28;20022;-59
2022/06/17 05:17:03;;;;;;;4.90;2.05;;;26.10;72.10;;;;;;5009729;28;20040;-59
2022/06/17 05:19:28;;;;;;;2.97;1.80;;;25.90;70.30;;;;;;5011990;28;20034;-59
2022/06/17 05:21:54;;;;;;;4.35;2.15;;;26.10;71.00;;;;;;5003666;28;20392;-59
2022/06/17 05:24:20;;;;;;;4.82;2.13;;;26.10;70.20;;;;;;5007634;28;20110;-60
2022/06/17 05:26:46;;;;;;;6.95;2.38;;;26.10;70.80;;;;;;5012166;28;20395;-60
2022/06/17 05:29:12;;;;;;;3.10;2.05;;;26.30;70.00;;;;;;5010096;28;20026;-59
2022/06/17 05:31:38;;;;;;;5.15;1.83;;;27.10;68.40;;;;;;5011796;28;20531;-59
2022/06/17 05:34:05;;;;;;;4.07;1.85;;;27.30;67.30;;;;;;5010995;28;20558;-57
2022/06/17 05:36:31;;;;;;;5.28;2.08;;;27.30;68.30;;;;;;5010223;28;20526;-60
2022/06/17 05:38:57;;;;;;;3.03;2.00;;;28.50;66.10;;;;;;5010465;28;20018;-60
2022/06/17 05:41:24;;;;;;;5.57;2.10;;;28.30;65.10;;;;;;5008170;28;20041;-60
2022/06/17 05:43:51;;;;;;;3.85;1.77;;;28.10;66.20;;;;;;5006468;28;20030;-59
2022/06/17 05:46:18;;;;;;;4.13;2.00;;;27.60;67.30;;;;;;5009695;28;20029;-59
2022/06/17 05:48:43;;;;;;;3.45;1.98;;;27.40;67.00;;;;;;5008745;28;20100;-59
2022/06/17 05:51:10;;;;;;;3.97;2.03;;;27.80;64.90;;;;;;5009239;28;20093;-59
2022/06/17 05:53:36;;;;;;;3.28;1.92;;;28.60;65.20;;;;;;5010120;28;20030;-59
2022/06/17 05:56:02;;;;;;;3.25;1.75;;;29.00;63.00;;;;;;5010658;28;20037;-59
2022/06/17 05:58:28;;;;;;;2.95;1.67;;;28.50;62.90;;;;;;5010017;28;20033;-60
2022/06/17 06:00:53;;;;;;;5.20;2.20;;;28.50;62.50;;;;;;5005123;28;20030;-59
2022/06/17 06:03:22;;;;;;;5.57;1.80;;;29.80;62.60;;;;;;5008276;28;20026;-59
2022/06/17 06:05:47;;;;;;;2.33;1.70;;;30.00;61.20;;;;;;4991017;28;20076;-59
2022/06/17 06:08:13;;;;;;;5.35;2.05;;;31.50;59.40;;;;;;5009370;28;20030;-59
2022/06/17 06:10:39;;;;;;;3.47;1.48;;;30.20;59.60;;;;;;5009603;28;20014;-59
2022/06/17 06:13:04;;;;;;;2.47;1.80;;;29.10;60.20;;;;;;5009611;28;20040;-59
2022/06/17 06:15:30;;;;;;;3.65;1.80;;;28.30;61.50;;;;;;5010651;28;20072;-59
2022/06/17 06:17:56;;;;;;;3.53;1.60;;;26.90;64.90;;;;;;5009131;28;20117;-59
2022/06/17 06:20:22;;;;;;;4.90;1.80;;;27.70;65.40;;;;;;5004609;28;20040;-58
2022/06/17 06:22:48;;;;;;;3.58;1.70;;;27.50;64.00;;;;;;5008572;28;20056;-59
2022/06/17 06:25:17;;;;;;;4.63;1.70;;;27.80;64.50;;;;;;5008942;28;20022;-57
2022/06/17 06:27:42;;;;;;;5.97;1.90;;;27.30;64.70;;;;;;5012223;28;20030;-58
2022/06/17 06:30:26;;;;;;;3.75;2.03;;;26.80;67.60;;;;;;5007714;28;20392;-58
2022/06/17 06:32:58;;;;;;;4.05;2.05;;;25.50;67.90;;;;;;5011361;28;20049;-59
2022/06/17 06:35:27;;;;;;;4.55;1.73;;;25.40;67.70;;;;;;5010004;28;20030;-59
2022/06/17 06:37:53;;;;;;;5.15;1.88;;;24.90;68.70;;;;;;5010540;28;20037;-57
2022/06/17 06:40:20;;;;;;;4.10;1.70;;;24.30;71.60;;;;;;5006561;28;20117;-59
2022/06/17 06:42:47;;;;;;;2.38;1.48;;;24.10;72.00;;;;;;5004624;28;20025;-59
2022/06/17 06:45:26;;;;;;;6.40;1.73;;;23.90;73.50;;;;;;5005638;28;20476;-59
2022/06/17 06:47:54;;;;;;;5.28;1.73;;;23.60;73.80;;;;;;5005740;28;20036;-59
2022/06/17 06:50:23;;;;;;;4.03;1.67;;;23.60;73.50;;;;;;5010313;28;20022;-59
2022/06/17 06:52:48;;;;;;;4.68;1.80;;;24.10;73.20;;;;;;5009370;28;20033;-58
2022/06/17 06:55:15;;;;;;;3.38;2.03;;;24.30;73.70;;;;;;5010382;28;20056;-60
2022/06/17 06:57:55;;;;;;;4.55;1.92;;;24.50;71.80;;;;;;5009203;28;20529;-58
2022/06/17 07:00:24;;;;;;;3.42;1.50;;;24.70;72.90;;;;;;5004063;28;20030;-59
2022/06/17 07:02:50;;;;;;;7.10;1.88;;;25.30;72.30;;;;;;5002943;28;20040;-58
2022/06/17 07:05:17;;;;;;;2.25;1.40;;;26.10;71.80;;;;;;5007698;28;20105;-59
2022/06/17 07:07:44;;;;;;;6.75;2.30;;;26.60;69.50;;;;;;4986294;28;20463;-60
2022/06/17 07:10:15;;;;;;;2.10;1.50;;;27.00;68.00;;;;;;5006588;28;20510;-59
2022/06/17 07:12:40;;;;;;;2.08;1.40;;;27.80;66.90;;;;;;5007399;28;20442;-59
2022/06/17 07:15:07;;;;;;;3.92;1.65;;;29.40;65.10;;;;;;5005738;28;20036;-60
2022/06/17 07:17:33;;;;;;;3.80;1.65;;;30.20;63.40;;;;;;5002715;28;20034;-59
2022/06/17 07:19:59;;;;;;;3.88;1.58;;;31.40;60.40;;;;;;4996784;28;20034;-59
2022/06/17 07:22:24;;;;;;;5.68;1.95;;;32.20;59.70;;;;;;5002472;28;20030;-60
2022/06/17 07:24:50;;;;;;;4.03;1.42;;;32.70;58.80;;;;;;5008267;28;20029;-60
2022/06/17 07:27:16;;;;;;;6.90;2.30;;;32.70;56.60;;;;;;5009263;28;20038;-60
2022/06/17 07:29:42;;;;;;;2.92;1.75;;;33.40;57.70;;;;;;5007129;28;20018;-60
2022/06/17 07:32:08;;;;;;;4.45;1.45;;;33.70;55.80;;;;;;5009586;28;20053;-58
2022/06/17 07:34:33;;;;;;;7.43;1.55;;;34.70;55.40;;;;;;5008116;28;20038;-60
2022/06/17 07:39:55;;;;;;;6.10;1.50;;;34.20;54.50;;;;;;4997173;28;20069;-60
2022/06/17 07:42:23;;;;;;;3.47;1.77;;;34.60;52.60;;;;;;5009497;28;20030;-59
2022/06/17 07:44:49;;;;;;;2.67;1.40;;;34.40;54.00;;;;;;5001341;28;20041;-60
2022/06/17 07:47:18;;;;;;;3.88;1.48;;;33.90;53.20;;;;;;5007253;28;20029;-60
2022/06/17 07:49:44;;;;;;;5.55;1.30;;;34.00;51.90;;;;;;5004180;28;20085;-60
2022/06/17 07:52:10;;;;;;;3.08;1.30;;;33.80;53.80;;;;;;5008935;28;20450;-60
2022/06/17 07:54:35;;;;;;;2.05;1.20;;;33.70;53.40;;;;;;5008398;28;20108;-59
2022/06/17 07:57:01;;;;;;;2.30;1.25;;;34.00;51.90;;;;;;5008251;28;20132;-60
2022/06/17 07:59:27;;;;;;;3.53;1.67;;;34.50;53.10;;;;;;5000779;28;20069;-59
2022/06/17 08:01:53;;;;;;;4.45;1.48;;;34.50;52.00;;;;;;5008572;28;20087;-60
2022/06/17 08:04:18;;;;;;;2.70;1.40;;;34.00;51.10;;;;;;5009276;28;20028;-60
2022/06/17 08:06:49;;;;;;;7.80;1.48;;;34.70;50.60;;;;;;4988927;28;20052;-60
2022/06/17 08:09:16;;;;;;;4.85;1.67;;;34.60;51.50;;;;;;5007824;28;20065;-60
2022/06/17 08:11:42;;;;;;;3.05;1.33;;;35.10;49.80;;;;;;5008588;28;20527;-60
2022/06/17 08:14:07;;;;;;;6.32;1.52;;;35.40;50.50;;;;;;5008390;28;20030;-54
2022/06/17 08:16:35;;;;;;;4.10;1.42;;;35.20;49.00;;;;;;5007031;28;20479;-60
2022/06/17 08:19:03;;;;;;;2.95;1.35;;;35.20;50.20;;;;;;5006187;28;20112;-58
2022/06/17 08:21:28;;;;;;;2.03;1.25;;;35.00;50.00;;;;;;5006742;28;20045;-58
2022/06/17 08:23:54;;;;;;;2.90;1.20;;;35.50;49.80;;;;;;5012953;28;20021;-58
2022/06/17 08:26:20;;;;;;;2.95;1.25;;;35.70;50.00;;;;;;5020066;28;20406;-58
2022/06/17 08:28:45;;;;;;;3.83;1.40;;;35.90;48.10;;;;;;5012253;28;20030;-57
2022/06/17 08:31:11;;;;;;;3.03;1.38;;;35.60;49.20;;;;;;5009001;28;20061;-58
2022/06/17 08:33:37;;;;;;;5.88;1.40;;;35.30;48.70;;;;;;5012280;28;20041;-58
2022/06/17 08:36:12;;;;;;;2.05;1.35;;;35.00;50.90;;;;;;5011205;28;20156;-57
2022/06/17 08:38:41;;;;;;;6.57;1.52;;;35.90;48.30;;;;;;5009860;28;20034;-59
2022/06/17 08:41:30;;;;;;;6.45;1.60;;;34.50;49.00;;;;;;5012181;28;20026;-58
2022/06/17 08:44:02;;;;;;;5.28;1.35;;;34.10;49.70;;;;;;5006506;28;20054;-56
2022/06/17 08:46:58;;;;;;;3.00;1.35;;;34.50;51.00;;;;;;5012159;28;20030;-58
2022/06/17 08:49:30;;;;;;;6.60;1.70;;;35.10;50.10;;;;;;5011898;28;20026;-60
2022/06/17 08:52:40;;;;;;;3.42;1.45;;;34.30;48.60;;;;;;5011703;28;20075;-60
2022/06/17 08:55:36;;;;;;;4.15;1.30;;;34.40;51.30;;;;;;5006444;28;20468;-60
2022/06/17 08:58:30;;;;;;;3.38;1.40;;;34.70;50.30;;;;;;5010546;28;20029;-60
2022/06/17 09:01:15;;;;;;;2.75;1.60;;;34.80;50.20;;;;;;5011807;28;20443;-60
2022/06/17 09:04:06;;;;;;;5.03;1.30;;;33.70;51.30;;;;;;5011527;28;20723;-60
2022/06/17 09:06:43;;;;;;;3.45;1.55;;;34.60;49.50;;;;;;4989034;28;20027;-60
2022/06/17 09:09:33;;;;;;;5.95;1.60;;;34.60;49.40;;;;;;5010243;28;20080;-60
2022/06/17 09:12:19;;;;;;;4.45;1.52;;;34.50;49.60;;;;;;5008164;28;20108;-60
2022/06/17 09:15:08;;;;;;;2.80;1.20;;;34.90;49.70;;;;;;5011185;28;20491;-59
2022/06/17 09:18:08;;;;;;;3.53;1.48;;;34.90;51.30;;;;;;5010107;28;20034;-60
2022/06/17 09:20:37;;;;;;;3.85;1.42;;;34.40;50.00;;;;;;5001708;28;20076;-60
2022/06/17 09:23:05;;;;;;;3.83;1.55;;;33.80;49.90;;;;;;4995965;28;20042;-60
2022/06/17 09:25:58;;;;;;;4.35;1.60;;;33.80;50.90;;;;;;4996378;28;20492;-60
2022/06/17 09:28:29;;;;;;;4.43;1.70;;;33.90;49.80;;;;;;4994020;28;20034;-60
2022/06/17 09:31:05;;;;;;;2.38;1.13;;;33.50;50.80;;;;;;5005663;28;20114;-60
2022/06/17 09:33:57;;;;;;;2.00;1.20;;;33.90;52.30;;;;;;5010771;28;20153;-60
2022/06/17 09:36:33;;;;;;;2.35;1.10;;;34.10;51.60;;;;;;5009407;28;20066;-60
2022/06/17 09:39:07;;;;;;;2.75;1.10;;;34.60;50.70;;;;;;5007044;28;20585;-59
2022/06/17 09:41:42;;;;;;;3.17;1.20;;;35.00;48.90;;;;;;5010353;28;20439;-59
2022/06/17 09:44:15;;;;;;;4.65;1.40;;;35.10;48.30;;;;;;5009180;28;20030;-60
2022/06/17 09:46:54;;;;;;;4.10;1.60;;;34.70;49.00;;;;;;5008991;28;20034;-60
2022/06/17 09:49:28;;;;;;;5.45;1.50;;;34.20;47.50;;;;;;5010806;28;20025;-60
2022/06/17 09:52:18;;;;;;;2.00;1.08;;;34.40;48.40;;;;;;5006074;28;20057;-60
2022/06/17 09:55:04;;;;;;;1.77;1.05;;;34.50;48.10;;;;;;5004048;28;20087;-60
2022/06/17 09:57:47;;;;;;;3.20;1.27;;;34.30;49.10;;;;;;5004175;28;20046;-58
2022/06/17 10:00:19;;;;;;;3.10;1.20;;;34.20;48.10;;;;;;5009805;28;20038;-59
2022/06/17 10:03:04;;;;;;;2.83;1.23;;;34.10;48.50;;;;;;5004652;28;20026;-59
2022/06/17 10:06:00;;;;;;;3.45;1.30;;;34.10;48.90;;;;;;5005221;28;20036;-60
2022/06/17 10:08:50;;;;;;;4.03;1.20;;;34.00;48.80;;;;;;4998811;28;20050;-60
2022/06/17 10:11:24;;;;;;;2.47;1.10;;;33.30;49.60;;;;;;5012280;28;20021;-57
2022/06/17 10:14:17;;;;;;;6.22;1.33;;;32.20;49.80;;;;;;5006667;28;20404;-58
2022/06/17 10:20:14;;;;;;;3.08;1.17;;;32.30;51.00;;;;;;5006818;28;20053;-60
2022/06/17 10:22:56;;;;;;;3.70;1.10;;;32.10;51.80;;;;;;5006255;28;20038;-60
2022/06/17 10:25:42;;;;;;;4.30;1.10;;;32.50;52.00;;;;;;5006370;28;20029;-59
2022/06/17 10:28:45;;;;;;;4.03;1.10;;;32.00;50.10;;;;;;5005332;28;20392;-55
2022/06/17 10:31:26;;;;;;;3.50;0.90;;;31.70;47.10;;;;;;5005792;28;20049;-57
2022/06/17 10:33:55;;;;;;;3.88;1.65;;;31.50;50.60;;;;;;5000632;28;20021;-58
2022/06/17 10:36:20;;;;;;;2.25;1.10;;;31.50;49.90;;;;;;5006368;28;20070;-58
2022/06/17 10:38:47;;;;;;;4.28;0.80;;;31.60;50.70;;;;;;5001426;28;20534;-59
2022/06/17 10:41:16;;;;;;;2.17;1.00;;;31.80;50.50;;;;;;5009154;28;20022;-58
2022/06/17 10:43:51;;;;;;;3.58;1.52;;;31.70;51.00;;;;;;5001595;28;20037;-57
2022/06/17 10:46:29;;;;;;;1.75;1.10;;;31.20;50.30;;;;;;5002825;28;20116;-58
2022/06/17 10:49:22;;;;;;;2.10;1.13;;;31.20;52.50;;;;;;5009858;28;20080;-59
2022/06/17 10:51:51;;;;;;;3.22;1.23;;;31.20;51.10;;;;;;5003958;28;20505;-60
2022/06/17 10:54:23;;;;;;;3.90;1.27;;;30.90;51.00;;;;;;5003913;28;20029;-60
2022/06/17 10:57:01;;;;;;;3.47;1.15;;;30.80;50.90;;;;;;4997553;28;20125;-60
2022/06/17 10:59:34;;;;;;;7.75;1.20;;;30.50;51.10;;;;;;5017006;28;20516;-58
2022/06/17 11:02:00;;;;;;;2.05;1.00;;;30.30;51.20;;;;;;4999231;28;20163;-59
2022/06/17 11:04:32;;;;;;;3.13;0.80;;;30.30;51.10;;;;;;5005488;28;20621;-60
2022/06/17 11:07:00;;;;;;;2.33;1.00;;;30.30;51.00;;;;;;4985733;28;20054;-57
2022/06/17 11:09:32;;;;;;;3.20;0.98;;;30.10;49.20;;;;;;5007576;28;20021;-60
2022/06/17 11:12:04;;;;;;;1.92;1.00;;;30.10;51.90;;;;;;5010142;28;20048;-60
2022/06/17 11:14:40;;;;;;;2.67;1.10;;;30.10;53.20;;;;;;5006091;28;20034;-60
2022/06/17 11:17:29;;;;;;;2.47;1.27;;;30.10;49.80;;;;;;5004494;28;20034;-60
2022/06/17 11:20:00;;;;;;;2.08;0.93;;;30.10;52.30;;;;;;5000493;28;20029;-60
2022/06/17 11:22:36;;;;;;;4.20;0.90;;;29.70;50.30;;;;;;5009616;28;20029;-59
2022/06/17 11:25:46;;;;;;;6.45;1.20;;;29.70;51.90;;;;;;5008139;28;20451;-60
2022/06/17 11:28:20;;;;;;;3.50;0.80;;;30.00;53.00;;;;;;4996145;28;20028;-59
2022/06/17 11:31:01;;;;;;;2.00;0.90;;;30.30;49.30;;;;;;4986278;28;20565;-60
2022/06/17 11:33:41;;;;;;;1.80;0.73;;;30.30;49.60;;;;;;4999831;28;20038;-59
2022/06/17 11:36:19;;;;;;;3.25;0.90;;;30.30;49.80;;;;;;5009666;28;20113;-60
2022/06/17 11:38:46;;;;;;;2.83;0.90;;;30.60;49.70;;;;;;5002567;28;20488;-58
2022/06/17 11:41:29;;;;;;;3.95;1.10;;;30.50;49.90;;;;;;5006266;28;20030;-60
2022/06/17 11:44:04;;;;;;;4.93;1.65;;;30.60;51.10;;;;;;4996208;28;20033;-58
2022/06/17 11:46:33;;;;;;;2.42;1.02;;;30.70;51.20;;;;;;5003754;28;20057;-60
2022/06/17 11:49:09;;;;;;;6.53;0.90;;;30.70;51.40;;;;;;5004230;28;20034;-59
2022/06/17 11:51:41;;;;;;;10.50;1.13;;;30.80;52.50;;;;;;5009262;28;20087;-59
2022/06/17 11:54:17;;;;;;;4.80;0.87;;;30.90;50.00;;;;;;5003187;28;20026;-60
2022/06/17 11:56:46;;;;;;;1.13;0.65;;;30.90;51.00;;;;;;5006997;28;20125;-59
2022/06/17 11:59:13;;;;;;;1.33;0.88;;;30.50;49.70;;;;;;5004111;28;20062;-59
2022/06/17 12:01:42;;;;;;;1.20;0.75;;;30.40;48.80;;;;;;5009452;28;20022;-59
2022/06/17 12:04:48;;;;;;;4.43;1.10;;;30.60;50.40;;;;;;5007830;28;20026;-58
2022/06/17 12:07:34;;;;;;;5.95;1.00;;;30.20;49.60;;;;;;4949229;28;20047;-59
2022/06/17 12:10:20;;;;;;;6.85;1.00;;;30.20;50.80;;;;;;4960236;28;20055;-59
2022/06/17 12:12:49;;;;;;;5.47;1.00;;;30.20;51.20;;;;;;4999011;28;20447;-59
2022/06/17 12:15:23;;;;;;;3.90;0.98;;;30.00;50.40;;;;;;5008186;28;20030;-59
2022/06/17 12:17:50;;;;;;;1.55;1.00;;;30.10;49.60;;;;;;5006456;28;20029;-59
2022/06/17 12:20:54;;;;;;;7.22;0.88;;;30.20;50.90;;;;;;5008393;28;20523;-59
2022/06/17 12:24:01;;;;;;;1.55;0.82;;;30.50;49.90;;;;;;5005977;28;20058;-59
2022/06/17 12:26:34;;;;;;;3.40;0.68;;;30.40;51.00;;;;;;4995404;28;20042;-59
2022/06/17 12:29:15;;;;;;;1.48;0.75;;;30.40;48.90;;;;;;4994525;28;20031;-58
2022/06/17 12:31:49;;;;;;;2.70;1.00;;;30.50;48.00;;;;;;4994051;28;20030;-59
2022/06/17 12:34:50;;;;;;;2.70;0.82;;;30.40;48.70;;;;;;4996594;28;20038;-59
2022/06/17 12:37:29;;;;;;;1.70;1.00;;;30.40;48.20;;;;;;4979579;28;20114;-59
2022/06/17 12:40:06;;;;;;;3.45;0.90;;;30.00;47.90;;;;;;4996208;28;20033;-59
2022/06/17 12:42:34;;;;;;;3.20;1.10;;;30.00;49.90;;;;;;5008819;28;20030;-59
2022/06/17 12:45:13;;;;;;;2.60;0.88;;;30.00;50.30;;;;;;5008518;28;20495;-59
2022/06/17 12:47:51;;;;;;;2.60;1.00;;;30.00;50.30;;;;;;5007441;28;20037;-59
2022/06/17 12:53:22;;;;;;;5.70;1.10;;;29.70;51.40;;;;;;5008822;28;20088;-58
2022/06/17 12:56:02;;;;;;;4.53;1.27;;;29.80;51.50;;;;;;5002851;28;20026;-59
2022/06/17 12:58:49;;;;;;;3.75;1.00;;;29.70;50.60;;;;;;5008079;28;20034;-60
2022/06/17 13:01:34;;;;;;;3.83;1.48;;;29.50;50.30;;;;;;5008342;28;20034;-60
2022/06/17 13:04:35;;;;;;;2.60;1.02;;;29.50;51.20;;;;;;5007422;28;20100;-60
2022/06/17 13:07:22;;;;;;;1.48;0.98;;;29.20;51.30;;;;;;5011689;28;20030;-59
2022/06/17 13:13:24;;;;;;;4.00;1.17;;;29.30;50.80;;;;;;5015749;28;20067;-59
2022/06/17 13:16:17;;;;;;;8.30;0.88;;;29.30;50.10;;;;;;5000484;28;20117;-59
2022/06/17 13:19:01;;;;;;;3.90;1.00;;;29.30;50.80;;;;;;5011607;28;20037;-59
2022/06/17 13:21:38;;;;;;;2.88;1.20;;;29.30;49.80;;;;;;5002711;28;20521;-61
2022/06/17 13:24:57;;;;;;;4.22;1.20;;;29.40;52.90;;;;;;4997173;28;20030;-59
2022/06/17 13:27:36;;;;;;;3.40;1.38;;;29.30;52.00;;;;;;4972649;28;20038;-59
2022/06/17 13:30:27;;;;;;;5.15;1.30;;;29.30;51.90;;;;;;5000242;28;20046;-59
2022/06/17 13:33:03;;;;;;;3.25;1.00;;;29.30;51.90;;;;;;5006962;28;20534;-58